Time;durP1;ratioP1;P1;durP2;ratioP2;P2;SDS_P1;SDS_P2;PMS_P1;PMS_P2;Temp;Humidity;BMP_temperature;BMP_pressure;BME280_temperature;BME280_humidity;BME280_pressure;Samples;Min_cycle;Max_cycle;Signal;HPM_P1;HPM_P2
2023/08/06 00:00:27;;;;;;;25.83;10.50;;;;;;;15.27;100.00;100307.69;4930847;29;20047;-76
2023/08/06 00:02:54;;;;;;;18.40;9.45;;;;;;;15.25;100.00;100313.75;4932763;29;20065;-73
2023/08/06 00:05:21;;;;;;;21.75;9.10;;;;;;;15.18;100.00;100305.63;4956347;28;20129;-73
2023/08/06 00:07:48;;;;;;;19.50;9.45;;;;;;;15.17;100.00;100309.69;4955648;28;20052;-75
2023/08/06 00:10:15;;;;;;;16.70;8.73;;;;;;;15.21;100.00;100310.31;4948653;28;21392;-73
2023/08/06 00:12:43;;;;;;;15.57;7.53;;;;;;;15.15;100.00;100309.34;4955780;28;20086;-75
2023/08/06 00:15:11;;;;;;;11.68;4.20;;;;;;;15.14;100.00;100277.00;4950846;28;20069;-76
2023/08/06 00:17:37;;;;;;;11.43;5.25;;;;;;;15.15;100.00;100270.16;4949634;28;20109;-75
2023/08/06 00:20:06;;;;;;;15.38;6.28;;;;;;;15.17;100.00;100281.69;4950797;28;20043;-75
2023/08/06 00:22:34;;;;;;;13.77;6.93;;;;;;;15.19;100.00;100270.03;4955950;28;20055;-74
2023/08/06 00:25:02;;;;;;;14.40;6.47;;;;;;;15.18;100.00;100272.03;4948734;28;20126;-76
2023/08/06 00:27:28;;;;;;;14.20;7.03;;;;;;;15.16;100.00;100276.53;4949059;28;20150;-73
2023/08/06 00:29:55;;;;;;;14.35;6.80;;;;;;;15.16;100.00;100280.13;4955662;28;20669;-76
2023/08/06 00:32:22;;;;;;;16.73;6.65;;;;;;;15.14;100.00;100271.41;4948380;28;20055;-75
2023/08/06 00:34:51;;;;;;;15.50;7.47;;;;;;;15.16;100.00;100263.34;4950898;28;20582;-75
2023/08/06 00:37:17;;;;;;;16.85;7.57;;;;;;;15.17;100.00;100276.09;4950245;28;20074;-74
2023/08/06 00:39:44;;;;;;;18.00;8.50;;;;;;;15.13;100.00;100269.84;4953998;28;20130;-75
2023/08/06 00:42:12;;;;;;;20.25;9.18;;;;;;;15.13;100.00;100269.84;4932735;28;20113;-75
2023/08/06 00:44:38;;;;;;;21.33;8.43;;;;;;;15.10;100.00;100265.16;4951139;28;20558;-74
2023/08/06 00:47:07;;;;;;;21.50;9.20;;;;;;;15.10;100.00;100270.75;4952549;28;20853;-76
2023/08/06 00:49:36;;;;;;;17.02;8.60;;;;;;;15.10;100.00;100267.97;4947517;28;20244;-76
2023/08/06 00:52:05;;;;;;;19.00;9.70;;;;;;;15.07;100.00;100271.69;4954773;28;20085;-75
2023/08/06 00:54:34;;;;;;;18.10;8.98;;;;;;;15.06;100.00;100270.13;4951010;28;20055;-75
2023/08/06 00:57:02;;;;;;;21.48;9.65;;;;;;;15.03;100.00;100259.84;4947477;28;20059;-76
2023/08/06 00:59:30;;;;;;;18.90;9.30;;;;;;;15.05;100.00;100262.19;4948228;28;20088;-77
2023/08/06 01:01:57;;;;;;;19.23;9.20;;;;;;;15.05;100.00;100254.53;4953122;28;20110;-76
2023/08/06 01:04:25;;;;;;;21.70;9.27;;;;;;;15.04;100.00;100255.78;4948942;28;20047;-76
2023/08/06 01:07:14;;;;;;;18.75;8.73;;;;;;;14.99;100.00;100262.00;4952822;28;20043;-73
2023/08/06 01:10:08;;;;;;;17.88;9.40;;;;;;;15.02;100.00;100252.66;4950299;28;20054;-76
2023/08/06 01:13:02;;;;;;;20.70;9.68;;;;;;;15.03;100.00;100257.03;4950553;28;20051;-76
2023/08/06 01:15:33;;;;;;;22.85;10.10;;;;;;;15.03;100.00;100241.00;4921943;28;20583;-76
2023/08/06 01:18:00;;;;;;;20.02;9.73;;;;;;;15.05;100.00;100240.56;4949493;29;20191;-76
2023/08/06 01:20:31;;;;;;;19.23;9.65;;;;;;;15.05;100.00;100234.94;4951639;28;20044;-77
2023/08/06 01:22:57;;;;;;;19.23;9.10;;;;;;;15.04;100.00;100233.41;4951430;28;20157;-76
2023/08/06 01:25:34;;;;;;;18.85;9.00;;;;;;;15.04;100.00;100233.41;4948704;28;20059;-76
2023/08/06 01:28:16;;;;;;;19.30;9.20;;;;;;;15.04;100.00;100233.41;4946151;28;20168;-76
2023/08/06 01:30:43;;;;;;;17.13;9.18;;;;;;;15.03;100.00;100231.84;4951913;28;20122;-76
2023/08/06 01:33:16;;;;;;;17.80;9.18;;;;;;;15.05;100.00;100232.16;4934378;28;20059;-75
2023/08/06 01:35:43;;;;;;;24.45;9.15;;;;;;;15.05;100.00;100226.56;4956480;28;20050;-75
2023/08/06 01:38:09;;;;;;;19.63;9.95;;;;;;;15.06;100.00;100230.13;4956361;28;20101;-76
2023/08/06 01:40:36;;;;;;;19.55;8.15;;;;;;;15.06;100.00;100222.53;4958382;28;20043;-75
2023/08/06 01:43:02;;;;;;;19.02;8.75;;;;;;;15.08;100.00;100228.44;4957263;28;20066;-75
2023/08/06 01:45:29;;;;;;;17.17;8.73;;;;;;;15.04;100.00;100219.41;4957125;28;20066;-73
2023/08/06 01:47:55;;;;;;;22.60;8.52;;;;;;;15.02;100.00;100209.91;4937943;28;20050;-76
2023/08/06 01:50:22;;;;;;;22.75;8.63;;;;;;;15.03;100.00;100218.59;4954281;28;20039;-75
2023/08/06 01:52:49;;;;;;;17.40;8.40;;;;;;;15.02;100.00;100215.50;4958383;28;20652;-73
2023/08/06 01:55:15;;;;;;;19.63;9.10;;;;;;;15.03;100.00;100209.44;4954133;28;20085;-72
2023/08/06 01:57:42;;;;;;;18.92;8.20;;;;;;;15.05;100.00;100218.16;4955054;28;20070;-77
2023/08/06 02:00:09;;;;;;;17.73;8.07;;;;;;;15.06;100.00;100219.72;4955295;28;20143;-76
2023/08/06 02:02:35;;;;;;;16.77;7.72;;;;;;;15.07;100.00;100212.88;4935333;28;20047;-76
2023/08/06 02:05:02;;;;;;;25.77;8.60;;;;;;;15.04;100.00;100213.81;4952246;28;20043;-75
2023/08/06 02:07:29;;;;;;;16.85;8.60;;;;;;;15.03;100.00;100212.25;4957498;28;20134;-76
2023/08/06 02:09:55;;;;;;;16.92;7.85;;;;;;;15.04;100.00;100208.22;4957302;28;20118;-78
2023/08/06 02:12:22;;;;;;;18.58;8.18;;;;;;;15.01;100.00;100206.31;4959732;28;20452;-75
2023/08/06 02:14:48;;;;;;;20.27;7.18;;;;;;;15.02;100.00;100202.28;4952833;29;20059;-72
2023/08/06 02:17:15;;;;;;;16.20;8.13;;;;;;;15.00;100.00;100199.16;4953143;29;20054;-74
2023/08/06 02:19:43;;;;;;;16.73;7.22;;;;;;;15.02;100.00;100205.88;4959600;28;20412;-74
2023/08/06 02:22:09;;;;;;;15.77;7.15;;;;;;;15.02;100.00;100203.06;4953548;29;20094;-75
2023/08/06 02:24:36;;;;;;;15.50;7.30;;;;;;;15.02;100.00;100197.47;4936225;29;20055;-73
2023/08/06 02:27:02;;;;;;;15.43;6.82;;;;;;;15.00;100.00;100199.16;4953342;29;20582;-75
2023/08/06 02:29:29;;;;;;;15.02;6.60;;;;;;;14.99;100.00;100189.97;4952706;28;20497;-74
2023/08/06 02:31:55;;;;;;;15.18;7.35;;;;;;;15.02;100.00;100191.06;4956593;28;20074;-73
2023/08/06 02:34:22;;;;;;;17.10;7.10;;;;;;;15.00;100.00;100187.97;4953137;29;20051;-72
2023/08/06 02:36:49;;;;;;;16.95;8.07;;;;;;;14.95;100.00;100180.94;4953116;29;20051;-75
2023/08/06 02:39:15;;;;;;;14.88;6.65;;;;;;;14.99;100.00;100186.44;4952091;29;20051;-75
2023/08/06 02:41:42;;;;;;;17.05;7.10;;;;;;;14.96;100.00;100181.75;4952201;28;20129;-72
2023/08/06 02:44:08;;;;;;;15.15;6.53;;;;;;;14.98;100.00;100187.66;4952089;28;20421;-71
2023/08/06 02:46:35;;;;;;;19.20;7.38;;;;;;;14.95;100.00;100180.16;4957880;28;20101;-72
2023/08/06 02:49:01;;;;;;;14.15;6.57;;;;;;;14.96;100.00;100181.75;4954708;28;20491;-77
2023/08/06 02:51:28;;;;;;;11.93;5.80;;;;;;;14.94;100.00;100179.41;4952697;29;20047;-74
2023/08/06 02:53:54;;;;;;;13.60;6.30;;;;;;;14.93;100.00;100163.81;4952701;29;20051;-75
2023/08/06 02:56:21;;;;;;;14.57;6.55;;;;;;;14.98;100.00;100178.47;4951365;29;20562;-77
2023/08/06 02:58:48;;;;;;;13.07;6.47;;;;;;;14.98;100.00;100170.84;4951433;28;20110;-73
2023/08/06 03:01:14;;;;;;;14.23;6.45;;;;;;;14.95;100.00;100158.56;4950268;28;20158;-74
2023/08/06 03:03:41;;;;;;;15.60;6.18;;;;;;;14.98;100.00;100161.69;4950946;28;20054;-77
2023/08/06 03:06:08;;;;;;;17.08;7.28;;;;;;;14.95;100.00;100155.75;4952683;29;20046;-74
2023/08/06 03:08:34;;;;;;;15.18;6.35;;;;;;;14.92;100.00;100155.88;4952345;28;20113;-77
2023/08/06 03:11:01;;;;;;;13.82;6.00;;;;;;;14.87;100.00;100153.72;4954745;28;20574;-76
2023/08/06 03:13:28;;;;;;;16.08;6.57;;;;;;;14.87;100.00;100150.91;4951561;28;20050;-75
2023/08/06 03:15:56;;;;;;;14.25;6.82;;;;;;;14.83;100.00;100151.03;4951738;28;20055;-76
2023/08/06 03:18:23;;;;;;;12.93;6.10;;;;;;;14.80;100.00;100151.97;4952469;28;20047;-76
2023/08/06 03:20:49;;;;;;;14.98;7.25;;;;;;;14.71;100.00;100139.94;4952156;29;20591;-76
2023/08/06 03:23:16;;;;;;;12.43;6.35;;;;;;;14.67;100.00;100137.31;4951872;29;20538;-75
2023/08/06 03:25:43;;;;;;;15.73;6.25;;;;;;;14.64;100.00;100143.03;4952067;29;20119;-74
2023/08/06 03:28:09;;;;;;;14.55;6.18;;;;;;;14.61;100.00;100141.13;4952518;29;20133;-75
2023/08/06 03:30:36;;;;;;;14.48;5.88;;;;;;;14.56;100.00;100133.34;4950534;28;20076;-76
2023/08/06 03:33:02;;;;;;;16.95;8.75;;;;;;;14.53;100.00;100137.84;4952069;28;20496;-76
2023/08/06 03:35:29;;;;;;;12.88;7.07;;;;;;;14.46;100.00;100140.13;4950768;29;20405;-75
2023/08/06 03:37:55;;;;;;;14.98;6.47;;;;;;;14.46;100.00;100148.53;4952150;29;20118;-76
2023/08/06 03:40:22;;;;;;;14.85;6.70;;;;;;;14.45;100.00;100149.78;4951833;28;20618;-72
2023/08/06 03:42:49;;;;;;;17.27;7.28;;;;;;;14.42;100.00;100153.47;4957994;28;20579;-74
2023/08/06 03:45:15;;;;;;;17.25;6.32;;;;;;;14.40;100.00;100147.53;4951045;29;20058;-74
2023/08/06 03:47:42;;;;;;;16.20;6.35;;;;;;;14.35;100.00;100145.34;4951941;29;20492;-72
2023/08/06 03:50:09;;;;;;;16.33;6.30;;;;;;;14.30;100.00;100143.91;4951167;28;20078;-78
2023/08/06 03:52:35;;;;;;;13.82;6.75;;;;;;;14.26;100.00;100139.66;4960375;28;20058;-76
2023/08/06 03:55:02;;;;;;;14.15;5.80;;;;;;;14.23;100.00;100148.97;4935595;29;20078;-76
2023/08/06 03:57:28;;;;;;;14.52;6.32;;;;;;;14.20;100.00;100142.28;4951718;29;20079;-76
2023/08/06 03:59:55;;;;;;;22.83;7.30;;;;;;;14.19;100.00;100146.31;4951639;28;20043;-77
2023/08/06 04:02:22;;;;;;;15.88;7.22;;;;;;;14.20;100.00;100141.50;4951742;29;20078;-74
2023/08/06 04:04:48;;;;;;;14.35;5.78;;;;;;;14.18;100.00;100146.78;4956006;28;20132;-75
2023/08/06 04:07:15;;;;;;;18.13;6.40;;;;;;;14.15;100.00;100136.50;4950456;28;20112;-75
2023/08/06 04:09:56;;;;;;;14.98;6.53;;;;;;;14.15;100.00;100148.44;4951217;28;20078;-76
2023/08/06 04:12:23;;;;;;;14.75;6.35;;;;;;;14.12;100.00;100143.78;4944333;29;20051;-75
2023/08/06 04:14:51;;;;;;;13.10;6.60;;;;;;;14.11;100.00;100145.00;4950656;28;20051;-75
2023/08/06 04:17:22;;;;;;;12.60;6.15;;;;;;;14.12;100.00;100141.00;4942227;29;20051;-73
2023/08/06 04:19:52;;;;;;;13.80;6.95;;;;;;;14.11;100.00;100141.44;4951017;28;20168;-74
2023/08/06 04:22:20;;;;;;;15.23;6.85;;;;;;;14.14;100.00;100154.50;4950209;28;20467;-73
2023/08/06 04:24:47;;;;;;;16.95;6.57;;;;;;;14.14;100.00;100146.88;4950601;28;20074;-75
2023/08/06 04:27:15;;;;;;;16.10;6.60;;;;;;;14.10;100.00;100146.25;4951363;28;20102;-76
2023/08/06 04:29:42;;;;;;;16.75;6.40;;;;;;;14.10;100.00;100142.66;4951573;28;20051;-75
2023/08/06 04:32:10;;;;;;;13.68;6.28;;;;;;;14.11;100.00;100138.66;4951063;29;20134;-73
2023/08/06 04:34:37;;;;;;;18.48;6.95;;;;;;;14.04;100.00;100136.88;4950696;29;20437;-73
2023/08/06 04:37:04;;;;;;;15.73;6.20;;;;;;;14.05;100.00;100144.03;4949969;28;20161;-73
2023/08/06 04:39:31;;;;;;;17.13;6.60;;;;;;;14.06;100.00;100139.22;4952445;28;20510;-75
2023/08/06 04:41:57;;;;;;;13.05;6.78;;;;;;;14.08;100.00;100148.69;4956954;28;20054;-75
2023/08/06 04:44:24;;;;;;;21.10;6.22;;;;;;;14.10;100.00;100151.03;4950719;29;20079;-75
2023/08/06 04:46:51;;;;;;;13.40;6.78;;;;;;;14.11;100.00;100149.84;4950867;29;20046;-76
2023/08/06 04:49:20;;;;;;;13.25;6.10;;;;;;;14.08;100.00;100143.13;4950985;28;20050;-72
2023/08/06 04:51:46;;;;;;;15.95;6.82;;;;;;;14.09;100.00;100143.91;4949766;28;20057;-74
2023/08/06 04:54:13;;;;;;;13.80;6.47;;;;;;;14.08;100.00;100148.69;4955499;28;20078;-73
2023/08/06 04:56:39;;;;;;;12.48;6.45;;;;;;;14.07;100.00;100138.78;4950941;29;20134;-75
2023/08/06 04:59:06;;;;;;;13.50;5.80;;;;;;;14.06;100.00;100142.81;4948406;28;20541;-74
2023/08/06 05:01:32;;;;;;;15.45;6.00;;;;;;;14.04;100.00;100147.28;4950374;29;20098;-75
2023/08/06 05:03:59;;;;;;;14.27;6.68;;;;;;;14.03;100.00;100145.72;4949501;28;20146;-74
2023/08/06 05:06:26;;;;;;;16.15;6.38;;;;;;;14.00;100.00;100144.63;4949586;28;20135;-75
2023/08/06 05:08:52;;;;;;;13.63;6.20;;;;;;;14.01;100.00;100142.63;4949983;28;20051;-76
2023/08/06 05:11:19;;;;;;;14.65;6.85;;;;;;;14.02;100.00;100150.53;4950628;29;20128;-75
2023/08/06 05:13:45;;;;;;;14.32;7.13;;;;;;;14.06;100.00;100153.19;4949696;28;20508;-75
2023/08/06 05:16:12;;;;;;;17.63;6.95;;;;;;;14.09;100.00;100152.28;4950211;29;20059;-75
2023/08/06 05:18:39;;;;;;;16.83;7.20;;;;;;;14.12;100.00;100156.97;4950216;28;20049;-74
2023/08/06 05:21:05;;;;;;;15.40;7.85;;;;;;;14.15;100.00;100164.44;4950634;28;20047;-76
2023/08/06 05:23:32;;;;;;;15.63;7.00;;;;;;;14.19;100.00;100162.31;4954888;28;20094;-75
2023/08/06 05:25:58;;;;;;;18.73;6.47;;;;;;;14.26;100.00;100162.03;4950089;28;20050;-74
2023/08/06 05:28:25;;;;;;;17.35;7.28;;;;;;;14.27;100.00;100169.97;4950220;28;20059;-76
2023/08/06 05:30:51;;;;;;;14.30;6.47;;;;;;;14.30;100.00;100165.47;4950445;28;20133;-73
2023/08/06 05:33:18;;;;;;;18.08;6.85;;;;;;;14.38;100.00;100170.34;4949720;28;20063;-74
2023/08/06 05:35:45;;;;;;;14.75;6.68;;;;;;;14.41;100.00;100163.84;4952609;28;20070;-75
2023/08/06 05:38:11;;;;;;;14.05;6.78;;;;;;;14.51;100.00;100173.09;4947893;28;20256;-74
2023/08/06 05:40:38;;;;;;;16.33;7.80;;;;;;;14.56;100.00;100169.72;4940866;28;21899;-74
2023/08/06 05:43:04;;;;;;;13.48;6.95;;;;;;;14.61;100.00;100174.72;4946229;28;20078;-73
2023/08/06 05:45:31;;;;;;;15.40;6.63;;;;;;;14.68;100.00;100172.44;4951595;28;20051;-75
2023/08/06 05:47:58;;;;;;;16.52;7.13;;;;;;;14.72;100.00;100170.25;4952703;28;20079;-74
2023/08/06 05:50:25;;;;;;;15.05;7.03;;;;;;;14.73;100.00;100168.25;4949435;28;20498;-76
2023/08/06 05:52:51;;;;;;;24.05;8.77;;;;;;;14.77;100.00;100174.50;4950411;29;20109;-72
2023/08/06 05:55:20;;;;;;;15.02;7.30;;;;;;;14.83;100.00;100179.03;4945897;28;20079;-73
2023/08/06 05:57:46;;;;;;;15.05;7.15;;;;;;;14.88;100.00;100180.44;4950353;29;20419;-75
2023/08/06 06:00:13;;;;;;;14.70;7.25;;;;;;;14.92;100.00;100175.47;4934236;28;20439;-73
2023/08/06 06:02:40;;;;;;;14.50;7.00;;;;;;;15.00;100.00;100182.38;4953801;28;20055;-72
2023/08/06 06:05:07;;;;;;;19.10;7.20;;;;;;;15.05;100.00;100178.97;4951750;28;20044;-73
2023/08/06 06:07:33;;;;;;;20.60;6.45;;;;;;;15.10;100.00;100180.38;4933130;29;20046;-74
2023/08/06 06:10:00;;;;;;;14.70;7.75;;;;;;;15.17;100.00;100180.09;4951301;28;20047;-75
2023/08/06 06:12:27;;;;;;;13.98;6.55;;;;;;;15.24;100.00;100183.41;4950006;29;20507;-76
2023/08/06 06:14:53;;;;;;;13.65;6.88;;;;;;;15.28;100.00;100175.63;4949303;28;20115;-76
2023/08/06 06:17:20;;;;;;;15.93;6.03;;;;;;;15.33;100.00;100172.22;4951761;28;20058;-75
2023/08/06 06:19:47;;;;;;;16.92;7.20;;;;;;;15.38;100.00;100182.06;4949082;28;20130;-75
2023/08/06 06:22:14;;;;;;;12.93;6.80;;;;;;;15.42;100.00;100182.72;4953675;28;20067;-75
2023/08/06 06:24:40;;;;;;;13.68;6.72;;;;;;;15.47;100.00;100182.09;4953499;29;20062;-77
2023/08/06 06:27:07;;;;;;;17.33;8.82;;;;;;;15.53;100.00;100186.59;4953348;29;20051;-75
2023/08/06 06:29:33;;;;;;;22.98;12.77;;;;;;;15.60;100.00;100183.53;4953041;28;20076;-75
2023/08/06 06:32:00;;;;;;;19.23;11.18;;;;;;;15.69;100.00;100188.38;4958490;28;20086;-73
2023/08/06 06:34:26;;;;;;;19.33;11.25;;;;;;;15.71;100.00;100181.03;4950144;29;20043;-77
2023/08/06 06:36:53;;;;;;;15.43;6.95;;;;;;;15.83;100.00;100182.91;4956209;28;20165;-74
2023/08/06 06:39:21;;;;;;;14.60;6.78;;;;;;;15.91;100.00;100181.38;4952385;28;20056;-74
2023/08/06 06:41:47;;;;;;;13.95;6.05;;;;;;;15.99;100.00;100179.81;4952938;29;20040;-73
2023/08/06 06:44:15;;;;;;;11.15;5.93;;;;;;;16.06;100.00;100171.09;4951883;28;20051;-73
2023/08/06 06:46:41;;;;;;;16.15;5.35;;;;;;;16.15;100.00;100164.69;4952490;29;20465;-74
2023/08/06 06:49:08;;;;;;;11.82;4.97;;;;;;;16.21;100.00;100158.00;4950995;28;20047;-73
2023/08/06 06:51:35;;;;;;;15.10;4.90;;;;;;;16.26;100.00;100154.59;4957161;28;20043;-73
2023/08/06 06:54:02;;;;;;;9.00;4.50;;;;;;;16.32;100.00;100144.31;4934337;29;20059;-74
2023/08/06 06:56:28;;;;;;;8.45;4.05;;;;;;;16.36;100.00;100128.06;4951083;28;20043;-73
2023/08/06 06:58:55;;;;;;;14.27;4.80;;;;;;;16.40;100.00;100123.06;4953021;28;20700;-77
2023/08/06 07:01:22;;;;;;;8.80;4.22;;;;;;;16.40;100.00;100113.88;4951714;28;20043;-78
2023/08/06 07:03:48;;;;;;;11.50;4.00;;;;;;;16.34;100.00;100116.53;4951796;29;20515;-77
2023/08/06 07:06:15;;;;;;;9.93;4.35;;;;;;;16.31;100.00;100111.09;4955855;28;20512;-77
2023/08/06 07:08:42;;;;;;;6.65;3.75;;;;;;;16.40;100.00;100102.66;4954053;28;20130;-79
2023/08/06 07:11:08;;;;;;;9.68;3.97;;;;;;;16.55;100.00;100112.75;4952448;29;20121;-77
2023/08/06 07:13:35;;;;;;;10.13;4.20;;;;;;;16.61;100.00;100108.03;4952893;29;20059;-78
2023/08/06 07:16:01;;;;;;;9.00;3.25;;;;;;;16.59;100.00;100095.75;4949843;28;20102;-78
2023/08/06 07:18:28;;;;;;;9.27;3.30;;;;;;;16.72;100.00;100096.31;4956176;28;20130;-77
2023/08/06 07:20:55;;;;;;;10.50;4.47;;;;;;;16.76;100.00;100094.91;4949254;28;20050;-78
2023/08/06 07:23:23;;;;;;;9.68;3.47;;;;;;;16.91;100.00;100092.94;4952046;29;20157;-77
2023/08/06 07:25:50;;;;;;;8.75;3.42;;;;;;;16.70;100.00;100085.56;4952073;29;20082;-76
2023/08/06 07:28:17;;;;;;;12.60;3.83;;;;;;;16.85;100.00;100078.00;4951224;28;20051;-77
2023/08/06 07:30:44;;;;;;;6.90;3.17;;;;;;;16.55;100.00;100081.91;4950896;28;20098;-76
2023/08/06 07:33:11;;;;;;;11.80;3.88;;;;;;;16.86;100.00;100087.22;4952152;29;20055;-76
2023/08/06 07:35:38;;;;;;;10.68;3.65;;;;;;;16.97;100.00;100095.88;4951494;28;20103;-76
2023/08/06 07:38:05;;;;;;;10.35;4.30;;;;;;;16.88;100.00;100091.09;4952565;28;20047;-77
2023/08/06 07:40:32;;;;;;;8.75;3.88;;;;;;;16.86;100.00;100090.81;4950087;28;20043;-76
2023/08/06 07:42:58;;;;;;;15.80;4.32;;;;;;;16.81;100.00;100094.25;4951523;29;20054;-75
2023/08/06 07:45:26;;;;;;;8.88;3.80;;;;;;;16.69;100.00;100098.06;4950282;28;20094;-76
2023/08/06 07:47:53;;;;;;;11.05;4.55;;;;;;;16.64;100.00;100095.88;4949505;28;20050;-76
2023/08/06 07:50:20;;;;;;;10.10;4.35;;;;;;;16.62;100.00;100101.19;4943795;29;20071;-75
2023/08/06 07:52:47;;;;;;;8.50;3.95;;;;;;;16.64;100.00;100104.28;4949626;28;20106;-76
2023/08/06 07:55:13;;;;;;;9.65;4.47;;;;;;;16.68;100.00;100116.13;4954175;28;20091;-76
2023/08/06 07:57:40;;;;;;;9.30;4.13;;;;;;;16.79;100.00;100108.00;4951558;28;20043;-76
2023/08/06 08:00:07;;;;;;;10.98;4.05;;;;;;;16.86;100.00;100104.06;4950653;28;20093;-75
2023/08/06 08:02:34;;;;;;;10.73;4.43;;;;;;;16.98;100.00;100115.06;4956458;28;20070;-76
2023/08/06 08:05:01;;;;;;;8.07;4.13;;;;;;;16.96;100.00;100116.78;4953309;28;20055;-75
2023/08/06 08:07:30;;;;;;;9.50;4.32;;;;;;;16.96;100.00;100109.16;4951334;29;20043;-76
2023/08/06 08:09:57;;;;;;;9.68;3.92;;;;;;;16.94;100.00;100110.88;4958999;28;20078;-76
2023/08/06 08:12:23;;;;;;;9.38;4.32;;;;;;;16.98;100.00;100109.44;4951831;29;20051;-76
2023/08/06 08:14:50;;;;;;;10.77;4.25;;;;;;;17.00;100.00;100101.34;4953660;28;20142;-76
2023/08/06 08:17:16;;;;;;;9.50;4.13;;;;;;;17.02;100.00;100106.47;4951398;28;20051;-76
2023/08/06 08:19:43;;;;;;;6.35;3.63;;;;;;;17.10;100.00;100111.25;4935011;28;20102;-76
2023/08/06 08:22:10;;;;;;;10.40;3.97;;;;;;;17.13;100.00;100113.16;4951779;28;20143;-76
2023/08/06 08:24:37;;;;;;;8.75;3.83;;;;;;;17.21;100.00;100111.53;4950918;29;20050;-76
2023/08/06 08:27:04;;;;;;;10.45;5.35;;;;;;;17.28;100.00;100118.81;4951095;29;20072;-76
2023/08/06 08:29:30;;;;;;;14.38;5.65;;;;;;;17.36;100.00;100115.16;4951116;28;20800;-76
2023/08/06 08:31:57;;;;;;;12.80;5.53;;;;;;;17.42;100.00;100116.06;4949741;28;20051;-76
2023/08/06 08:34:24;;;;;;;11.25;5.93;;;;;;;17.45;100.00;100119.19;4952823;28;20058;-76
2023/08/06 08:36:50;;;;;;;12.38;6.30;;;;;;;17.51;100.00;100120.09;4948082;28;20130;-77
2023/08/06 08:39:17;;;;;;;18.65;6.40;;;;;;;17.55;100.00;100117.88;4950559;28;20122;-78
2023/08/06 08:41:44;;;;;;;13.05;6.28;;;;;;;17.58;100.00;100112.06;4948452;28;20495;-77
2023/08/06 08:44:13;;;;;;;12.52;5.63;;;;;;;17.64;100.00;100112.94;4955502;28;20138;-78
2023/08/06 08:46:40;;;;;;;10.60;3.78;;;;;;;17.67;100.00;100105.59;4953232;28;20130;-77
2023/08/06 08:49:07;;;;;;;12.82;4.68;;;;;;;17.68;100.00;100109.97;4959136;28;20129;-78
2023/08/06 08:51:37;;;;;;;10.65;3.95;;;;;;;17.70;100.00;100102.59;4949563;28;20062;-77
2023/08/06 08:54:04;;;;;;;12.65;5.60;;;;;;;17.77;100.00;100113.47;4952392;29;20043;-78
2023/08/06 08:56:31;;;;;;;13.07;4.90;;;;;;;17.78;100.00;100111.47;4951699;28;20625;-78
2023/08/06 08:58:58;;;;;;;10.05;4.90;;;;;;;17.81;100.00;100116.09;4952047;28;20054;-77
2023/08/06 09:01:26;;;;;;;10.48;4.55;;;;;;;17.85;100.00;100116.72;4946248;28;20055;-78
2023/08/06 09:03:54;;;;;;;7.60;4.20;;;;;;;17.91;100.00;100117.56;4951163;29;20135;-78
2023/08/06 09:06:23;;;;;;;9.85;4.88;;;;;;;17.96;100.00;100117.69;4945814;28;20046;-77
2023/08/06 09:09:08;;;;;;;12.77;5.75;;;;;;;17.95;100.00;100112.59;4946327;28;20058;-76
2023/08/06 09:11:42;;;;;;;13.45;5.47;;;;;;;17.97;100.00;100115.69;4945568;28;20134;-77
2023/08/06 09:14:09;;;;;;;10.47;4.70;;;;;;;18.05;100.00;100111.22;4946662;28;20047;-77
2023/08/06 09:16:36;;;;;;;13.88;5.43;;;;;;;18.14;100.00;100117.56;4950538;28;20329;-76
2023/08/06 09:19:15;;;;;;;10.02;5.00;;;;;;;18.18;100.00;100125.78;4949256;28;20047;-77
2023/08/06 09:21:42;;;;;;;11.23;5.30;;;;;;;18.21;100.00;100122.78;4948143;28;20504;-76
2023/08/06 09:24:10;;;;;;;9.70;5.05;;;;;;;18.22;100.00;100120.75;4948592;28;20063;-77
2023/08/06 09:26:42;;;;;;;10.30;5.20;;;;;;;18.22;100.00;100123.56;4950106;28;20051;-78
2023/08/06 09:29:11;;;;;;;10.63;4.65;;;;;;;18.25;100.00;100122.59;4931567;28;20107;-79
2023/08/06 09:31:48;;;;;;;9.35;4.72;;;;;;;18.25;100.00;100134.63;4942245;28;20054;-77
2023/08/06 09:34:19;;;;;;;12.40;5.05;;;;;;;18.22;100.00;100138.41;4950704;29;20141;-78
2023/08/06 09:36:47;;;;;;;10.90;4.72;;;;;;;18.26;100.00;100136.19;4932994;29;20079;-78
2023/08/06 09:39:16;;;;;;;10.43;4.72;;;;;;;18.28;100.00;100147.72;4945157;28;20055;-76
2023/08/06 09:41:43;;;;;;;9.82;4.65;;;;;;;18.30;100.00;100138.81;4945558;28;20042;-75
2023/08/06 09:44:22;;;;;;;10.30;5.13;;;;;;;18.34;100.00;100140.19;4943280;28;20141;-78
2023/08/06 09:46:49;;;;;;;10.30;4.63;;;;;;;18.34;100.00;100140.19;4949072;28;20134;-76
2023/08/06 09:49:17;;;;;;;10.40;4.72;;;;;;;18.34;100.00;100142.19;4948030;28;20830;-77
2023/08/06 09:51:50;;;;;;;12.63;5.68;;;;;;;18.39;100.00;100147.16;4952849;28;20043;-77
2023/08/06 09:54:19;;;;;;;15.50;6.40;;;;;;;18.39;100.00;100147.16;4953629;29;20051;-76
2023/08/06 09:56:54;;;;;;;16.80;6.97;;;;;;;18.42;100.00;100144.16;4954481;29;20070;-76
2023/08/06 09:59:22;;;;;;;14.65;7.85;;;;;;;18.48;100.00;100135.81;4959028;28;20150;-76
2023/08/06 10:01:49;;;;;;;13.32;7.38;;;;;;;18.56;100.00;100139.78;4952415;28;20055;-77
2023/08/06 10:04:16;;;;;;;14.95;8.25;;;;;;;18.63;100.00;100142.22;4953813;29;20205;-76
2023/08/06 10:06:50;;;;;;;13.68;7.82;;;;;;;18.69;100.00;100140.25;4954309;29;20055;-75
2023/08/06 10:09:18;;;;;;;11.73;6.47;;;;;;;18.70;100.00;100133.38;4953865;28;20061;-76
2023/08/06 10:11:50;;;;;;;14.23;7.57;;;;;;;18.66;100.00;100125.13;4952713;28;20047;-76
2023/08/06 10:14:27;;;;;;;11.60;6.90;;;;;;;18.74;100.00;100125.53;4939473;28;20128;-77
2023/08/06 10:16:56;;;;;;;14.88;7.72;;;;;;;18.84;100.00;100130.53;4953621;28;20051;-77
2023/08/06 10:19:26;;;;;;;13.73;7.05;;;;;;;18.89;100.00;100129.09;4948241;28;20078;-77
2023/08/06 10:22:13;;;;;;;13.13;7.47;;;;;;;18.90;100.00;100114.53;4953431;28;20125;-76
2023/08/06 10:24:46;;;;;;;12.70;6.78;;;;;;;18.95;100.00;100111.03;4953646;28;20515;-77
2023/08/06 10:27:12;;;;;;;10.95;6.80;;;;;;;19.01;100.00;100108.28;4952000;28;20043;-77
2023/08/06 10:29:39;;;;;;;12.50;6.82;;;;;;;19.05;100.00;100100.41;4946950;28;20059;-77
2023/08/06 10:32:06;;;;;;;15.15;6.47;;;;;;;19.15;100.00;100101.84;4958672;28;20047;-77
2023/08/06 10:34:57;;;;;;;13.73;6.97;;;;;;;19.28;100.00;100110.72;4951648;29;20117;-77
2023/08/06 10:37:35;;;;;;;14.73;7.50;;;;;;;19.05;100.00;100091.94;4951597;28;20415;-77
2023/08/06 10:40:02;;;;;;;14.27;7.72;;;;;;;19.18;100.00;100098.03;4951100;28;20122;-77
2023/08/06 10:42:30;;;;;;;14.10;7.40;;;;;;;19.28;100.00;100100.22;4953971;28;20050;-76
2023/08/06 10:45:18;;;;;;;14.77;7.40;;;;;;;19.11;100.00;100098.44;4952909;29;20047;-77
2023/08/06 10:47:46;;;;;;;10.07;6.03;;;;;;;19.33;100.00;100095.91;4953321;29;20511;-74
2023/08/06 10:50:16;;;;;;;10.25;5.75;;;;;;;19.45;100.00;100100.44;4935213;28;20078;-77
2023/08/06 10:52:44;;;;;;;8.88;5.40;;;;;;;19.70;100.00;100096.94;4934663;28;20051;-77
2023/08/06 10:55:11;;;;;;;9.73;4.20;;;;;;;19.92;100.00;100097.19;4943966;28;20063;-77
2023/08/06 10:57:38;;;;;;;10.82;4.63;;;;;;;20.12;100.00;100088.69;4952996;28;20058;-76
2023/08/06 11:00:08;;;;;;;6.20;4.15;;;;;;;20.28;100.00;100085.28;4952437;28;20130;-76
2023/08/06 11:02:43;;;;;;;7.45;3.55;;;;;;;20.46;100.00;100095.44;4953196;28;20054;-75
2023/08/06 11:05:11;;;;;;;9.13;4.03;;;;;;;20.48;100.00;100087.25;4952014;28;20055;-77
2023/08/06 11:07:38;;;;;;;5.05;3.70;;;;;;;20.65;100.00;100093.81;4953174;28;20055;-77
2023/08/06 11:10:10;;;;;;;5.75;3.42;;;;;;;20.74;100.00;100090.78;4953243;28;20121;-78
2023/08/06 11:12:39;;;;;;;7.47;4.68;;;;;;;20.67;100.00;100085.59;4946783;29;20079;-78